sensor_id;sensor_type;location;lat;lon;timestamp;P1;durP1;ratioP1;P2;durP2;ratioP2
50717;SDS011;60557;51.350;12.410;2023-04-08T00:02:03;6.10;;;4.40;;
50717;SDS011;60557;51.350;12.410;2023-04-08T00:04:32;6.95;;;5.10;;
50717;SDS011;60557;51.350;12.410;2023-04-08T00:06:58;7.65;;;4.80;;
50717;SDS011;60557;51.350;12.410;2023-04-08T00:09:26;5.75;;;3.95;;
50717;SDS011;60557;51.350;12.410;2023-04-08T00:11:52;5.95;;;4.32;;
50717;SDS011;60557;51.350;12.410;2023-04-08T00:14:18;7.25;;;4.90;;
50717;SDS011;60557;51.350;12.410;2023-04-08T00:16:47;7.05;;;4.68;;
50717;SDS011;60557;51.350;12.410;2023-04-08T00:19:15;6.80;;;4.30;;
50717;SDS011;60557;51.350;12.410;2023-04-08T00:21:42;5.90;;;4.30;;
50717;SDS011;60557;51.350;12.410;2023-04-08T00:24:10;7.22;;;4.75;;
50717;SDS011;60557;51.350;12.410;2023-04-08T00:26:39;6.20;;;4.53;;
50717;SDS011;60557;51.350;12.410;2023-04-08T00:29:05;4.80;;;3.85;;
50717;SDS011;60557;51.350;12.410;2023-04-08T00:31:31;6.43;;;4.18;;
50717;SDS011;60557;51.350;12.410;2023-04-08T00:33:57;6.38;;;4.38;;
50717;SDS011;60557;51.350;12.410;2023-04-08T00:36:28;6.03;;;3.63;;
50717;SDS011;60557;51.350;12.410;2023-04-08T00:38:54;6.68;;;4.22;;
50717;SDS011;60557;51.350;12.410;2023-04-08T00:41:20;6.80;;;4.05;;
50717;SDS011;60557;51.350;12.410;2023-04-08T00:43:49;5.05;;;3.83;;
50717;SDS011;60557;51.350;12.410;2023-04-08T00:46:15;5.97;;;4.15;;
50717;SDS011;60557;51.350;12.410;2023-04-08T00:48:41;5.20;;;3.97;;
50717;SDS011;60557;51.350;12.410;2023-04-08T00:51:07;5.18;;;3.75;;
50717;SDS011;60557;51.350;12.410;2023-04-08T00:53:33;7.15;;;3.95;;
50717;SDS011;60557;51.350;12.410;2023-04-08T00:55:59;5.65;;;4.13;;
50717;SDS011;60557;51.350;12.410;2023-04-08T00:58:25;5.50;;;4.18;;
50717;SDS011;60557;51.350;12.410;2023-04-08T01:01:02;5.32;;;3.55;;
50717;SDS011;60557;51.350;12.410;2023-04-08T01:06:10;4.40;;;3.40;;
50717;SDS011;60557;51.350;12.410;2023-04-08T01:08:38;4.60;;;3.30;;
50717;SDS011;60557;51.350;12.410;2023-04-08T01:11:06;4.10;;;2.85;;
50717;SDS011;60557;51.350;12.410;2023-04-08T01:13:33;4.30;;;3.63;;
50717;SDS011;60557;51.350;12.410;2023-04-08T01:16:01;5.07;;;3.25;;
50717;SDS011;60557;51.350;12.410;2023-04-08T01:18:28;6.78;;;3.63;;
50717;SDS011;60557;51.350;12.410;2023-04-08T01:20:54;6.03;;;3.15;;
50717;SDS011;60557;51.350;12.410;2023-04-08T01:23:29;4.45;;;3.33;;
50717;SDS011;60557;51.350;12.410;2023-04-08T01:25:57;6.13;;;3.63;;
50717;SDS011;60557;51.350;12.410;2023-04-08T01:28:27;4.78;;;3.50;;
50717;SDS011;60557;51.350;12.410;2023-04-08T01:30:55;5.95;;;3.80;;
50717;SDS011;60557;51.350;12.410;2023-04-08T01:33:21;5.35;;;3.95;;
50717;SDS011;60557;51.350;12.410;2023-04-08T01:35:49;7.07;;;4.25;;
50717;SDS011;60557;51.350;12.410;2023-04-08T01:38:17;5.70;;;4.28;;
50717;SDS011;60557;51.350;12.410;2023-04-08T01:40:43;8.50;;;5.30;;
50717;SDS011;60557;51.350;12.410;2023-04-08T01:43:11;6.75;;;4.60;;
50717;SDS011;60557;51.350;12.410;2023-04-08T01:45:38;6.53;;;4.43;;
50717;SDS011;60557;51.350;12.410;2023-04-08T01:48:04;7.05;;;4.43;;
50717;SDS011;60557;51.350;12.410;2023-04-08T01:50:31;6.65;;;4.50;;
50717;SDS011;60557;51.350;12.410;2023-04-08T01:52:57;8.05;;;4.63;;
50717;SDS011;60557;51.350;12.410;2023-04-08T01:55:24;6.63;;;4.05;;
50717;SDS011;60557;51.350;12.410;2023-04-08T01:57:54;6.20;;;4.93;;
50717;SDS011;60557;51.350;12.410;2023-04-08T02:00:24;10.70;;;5.13;;
50717;SDS011;60557;51.350;12.410;2023-04-08T02:02:53;8.75;;;5.15;;
50717;SDS011;60557;51.350;12.410;2023-04-08T02:05:22;5.78;;;4.22;;
50717;SDS011;60557;51.350;12.410;2023-04-08T02:07:48;7.60;;;4.20;;
50717;SDS011;60557;51.350;12.410;2023-04-08T02:10:18;7.57;;;4.57;;
50717;SDS011;60557;51.350;12.410;2023-04-08T02:12:44;6.82;;;4.50;;
50717;SDS011;60557;51.350;12.410;2023-04-08T02:15:11;7.63;;;4.68;;
50717;SDS011;60557;51.350;12.410;2023-04-08T02:17:40;7.10;;;3.47;;
50717;SDS011;60557;51.350;12.410;2023-04-08T02:22:47;6.35;;;4.53;;
50717;SDS011;60557;51.350;12.410;2023-04-08T02:25:15;5.60;;;4.07;;
50717;SDS011;60557;51.350;12.410;2023-04-08T02:27:42;8.50;;;4.20;;
50717;SDS011;60557;51.350;12.410;2023-04-08T02:30:09;7.75;;;4.65;;
50717;SDS011;60557;51.350;12.410;2023-04-08T02:32:36;6.38;;;3.85;;
50717;SDS011;60557;51.350;12.410;2023-04-08T02:35:03;6.10;;;4.35;;
50717;SDS011;60557;51.350;12.410;2023-04-08T02:37:32;6.95;;;4.90;;
50717;SDS011;60557;51.350;12.410;2023-04-08T02:39:58;7.38;;;4.80;;
50717;SDS011;60557;51.350;12.410;2023-04-08T02:42:24;6.43;;;4.82;;
50717;SDS011;60557;51.350;12.410;2023-04-08T02:44:50;8.13;;;4.18;;
50717;SDS011;60557;51.350;12.410;2023-04-08T02:47:16;6.80;;;4.78;;
50717;SDS011;60557;51.350;12.410;2023-04-08T02:49:45;6.63;;;4.68;;
50717;SDS011;60557;51.350;12.410;2023-04-08T02:52:11;7.15;;;4.78;;
50717;SDS011;60557;51.350;12.410;2023-04-08T02:54:37;8.50;;;4.93;;
50717;SDS011;60557;51.350;12.410;2023-04-08T02:57:03;7.10;;;5.43;;
50717;SDS011;60557;51.350;12.410;2023-04-08T02:59:29;7.47;;;5.18;;
50717;SDS011;60557;51.350;12.410;2023-04-08T03:01:55;7.10;;;5.57;;
50717;SDS011;60557;51.350;12.410;2023-04-08T03:04:21;9.98;;;5.15;;
50717;SDS011;60557;51.350;12.410;2023-04-08T03:06:47;7.20;;;5.22;;
50717;SDS011;60557;51.350;12.410;2023-04-08T03:09:15;7.18;;;5.65;;
50717;SDS011;60557;51.350;12.410;2023-04-08T03:11:41;6.97;;;5.28;;
50717;SDS011;60557;51.350;12.410;2023-04-08T03:14:08;8.57;;;5.55;;
50717;SDS011;60557;51.350;12.410;2023-04-08T03:16:35;7.57;;;5.43;;
50717;SDS011;60557;51.350;12.410;2023-04-08T03:19:01;8.43;;;6.03;;
50717;SDS011;60557;51.350;12.410;2023-04-08T03:21:27;8.18;;;5.70;;
50717;SDS011;60557;51.350;12.410;2023-04-08T03:23:58;9.77;;;5.93;;
50717;SDS011;60557;51.350;12.410;2023-04-08T03:26:24;9.93;;;5.93;;
50717;SDS011;60557;51.350;12.410;2023-04-08T03:28:51;9.48;;;6.15;;
50717;SDS011;60557;51.350;12.410;2023-04-08T03:31:17;8.68;;;6.13;;
50717;SDS011;60557;51.350;12.410;2023-04-08T03:33:45;12.20;;;6.55;;
50717;SDS011;60557;51.350;12.410;2023-04-08T03:36:11;8.57;;;6.00;;
50717;SDS011;60557;51.350;12.410;2023-04-08T03:38:37;11.13;;;6.35;;
50717;SDS011;60557;51.350;12.410;2023-04-08T03:41:03;9.15;;;6.15;;
50717;SDS011;60557;51.350;12.410;2023-04-08T03:43:32;9.50;;;6.72;;
50717;SDS011;60557;51.350;12.410;2023-04-08T03:46:01;10.85;;;5.88;;
50717;SDS011;60557;51.350;12.410;2023-04-08T03:48:27;10.00;;;6.95;;
50717;SDS011;60557;51.350;12.410;2023-04-08T03:50:53;10.98;;;7.38;;
50717;SDS011;60557;51.350;12.410;2023-04-08T03:53:19;10.48;;;7.30;;
50717;SDS011;60557;51.350;12.410;2023-04-08T03:55:45;12.38;;;7.75;;
50717;SDS011;60557;51.350;12.410;2023-04-08T03:58:14;14.35;;;6.93;;
50717;SDS011;60557;51.350;12.410;2023-04-08T04:00:40;10.43;;;6.85;;
50717;SDS011;60557;51.350;12.410;2023-04-08T04:03:06;10.82;;;7.10;;
50717;SDS011;60557;51.350;12.410;2023-04-08T04:05:34;11.88;;;6.35;;
50717;SDS011;60557;51.350;12.410;2023-04-08T04:08:00;10.05;;;7.03;;
50717;SDS011;60557;51.350;12.410;2023-04-08T04:10:27;11.43;;;6.68;;
50717;SDS011;60557;51.350;12.410;2023-04-08T04:12:53;9.43;;;6.57;;
50717;SDS011;60557;51.350;12.410;2023-04-08T04:15:19;12.45;;;6.78;;
50717;SDS011;60557;51.350;12.410;2023-04-08T04:17:47;13.63;;;7.35;;
50717;SDS011;60557;51.350;12.410;2023-04-08T04:20:15;10.55;;;6.45;;
50717;SDS011;60557;51.350;12.410;2023-04-08T04:22:41;9.35;;;6.38;;
50717;SDS011;60557;51.350;12.410;2023-04-08T04:25:07;8.77;;;6.50;;
50717;SDS011;60557;51.350;12.410;2023-04-08T04:27:33;9.50;;;6.00;;
50717;SDS011;60557;51.350;12.410;2023-04-08T04:30:00;10.57;;;6.10;;
50717;SDS011;60557;51.350;12.410;2023-04-08T04:32:27;9.38;;;5.80;;
50717;SDS011;60557;51.350;12.410;2023-04-08T04:34:53;12.68;;;6.82;;
50717;SDS011;60557;51.350;12.410;2023-04-08T04:37:19;10.75;;;6.05;;
50717;SDS011;60557;51.350;12.410;2023-04-08T04:39:48;11.68;;;5.72;;
50717;SDS011;60557;51.350;12.410;2023-04-08T04:42:14;9.93;;;6.22;;
50717;SDS011;60557;51.350;12.410;2023-04-08T04:44:45;10.30;;;7.55;;
50717;SDS011;60557;51.350;12.410;2023-04-08T04:47:11;9.20;;;5.72;;
50717;SDS011;60557;51.350;12.410;2023-04-08T04:49:37;12.55;;;6.50;;
50717;SDS011;60557;51.350;12.410;2023-04-08T04:52:06;10.68;;;5.38;;
50717;SDS011;60557;51.350;12.410;2023-04-08T04:54:32;8.75;;;5.50;;
50717;SDS011;60557;51.350;12.410;2023-04-08T04:57:00;6.47;;;5.03;;
50717;SDS011;60557;51.350;12.410;2023-04-08T04:59:26;10.07;;;5.40;;
50717;SDS011;60557;51.350;12.410;2023-04-08T05:01:52;9.23;;;5.53;;
50717;SDS011;60557;51.350;12.410;2023-04-08T05:04:21;8.80;;;5.22;;
50717;SDS011;60557;51.350;12.410;2023-04-08T05:06:47;7.72;;;5.13;;
50717;SDS011;60557;51.350;12.410;2023-04-08T05:09:13;8.85;;;4.72;;
50717;SDS011;60557;51.350;12.410;2023-04-08T05:11:39;7.63;;;4.82;;
50717;SDS011;60557;51.350;12.410;2023-04-08T05:14:08;6.90;;;4.82;;
50717;SDS011;60557;51.350;12.410;2023-04-08T05:16:34;7.63;;;4.85;;
50717;SDS011;60557;51.350;12.410;2023-04-08T05:19:00;8.40;;;5.43;;
50717;SDS011;60557;51.350;12.410;2023-04-08T05:21:26;7.90;;;4.97;;
50717;SDS011;60557;51.350;12.410;2023-04-08T05:23:52;8.82;;;5.38;;
50717;SDS011;60557;51.350;12.410;2023-04-08T05:26:19;8.90;;;5.45;;
50717;SDS011;60557;51.350;12.410;2023-04-08T05:28:48;10.60;;;5.30;;
50717;SDS011;60557;51.350;12.410;2023-04-08T05:31:18;8.35;;;5.45;;
50717;SDS011;60557;51.350;12.410;2023-04-08T05:33:44;8.00;;;5.38;;
50717;SDS011;60557;51.350;12.410;2023-04-08T05:36:10;10.07;;;4.55;;
50717;SDS011;60557;51.350;12.410;2023-04-08T05:38:37;11.77;;;5.68;;
50717;SDS011;60557;51.350;12.410;2023-04-08T05:41:03;9.77;;;5.28;;
50717;SDS011;60557;51.350;12.410;2023-04-08T05:43:31;8.13;;;5.00;;
50717;SDS011;60557;51.350;12.410;2023-04-08T05:45:57;10.50;;;6.22;;
50717;SDS011;60557;51.350;12.410;2023-04-08T05:48:23;11.02;;;6.35;;
50717;SDS011;60557;51.350;12.410;2023-04-08T05:50:49;8.40;;;5.78;;
50717;SDS011;60557;51.350;12.410;2023-04-08T05:53:18;8.75;;;5.82;;
50717;SDS011;60557;51.350;12.410;2023-04-08T05:55:44;9.98;;;5.85;;
50717;SDS011;60557;51.350;12.410;2023-04-08T05:58:10;10.73;;;5.38;;
50717;SDS011;60557;51.350;12.410;2023-04-08T06:00:38;8.77;;;4.97;;
50717;SDS011;60557;51.350;12.410;2023-04-08T06:03:04;10.70;;;5.15;;
50717;SDS011;60557;51.350;12.410;2023-04-08T06:05:30;7.70;;;5.35;;
50717;SDS011;60557;51.350;12.410;2023-04-08T06:07:56;8.40;;;5.35;;
50717;SDS011;60557;51.350;12.410;2023-04-08T06:10:22;10.45;;;5.18;;
50717;SDS011;60557;51.350;12.410;2023-04-08T06:12:51;10.98;;;6.15;;
50717;SDS011;60557;51.350;12.410;2023-04-08T06:15:17;10.88;;;5.95;;
50717;SDS011;60557;51.350;12.410;2023-04-08T06:17:43;8.85;;;5.53;;
50717;SDS011;60557;51.350;12.410;2023-04-08T06:20:11;12.02;;;6.38;;
50717;SDS011;60557;51.350;12.410;2023-04-08T06:22:37;10.75;;;6.47;;
50717;SDS011;60557;51.350;12.410;2023-04-08T06:25:03;17.90;;;6.80;;
50717;SDS011;60557;51.350;12.410;2023-04-08T06:27:30;13.88;;;7.80;;
50717;SDS011;60557;51.350;12.410;2023-04-08T06:29:56;13.77;;;7.78;;
50717;SDS011;60557;51.350;12.410;2023-04-08T06:32:24;13.60;;;6.68;;
50717;SDS011;60557;51.350;12.410;2023-04-08T06:34:50;13.80;;;7.55;;
50717;SDS011;60557;51.350;12.410;2023-04-08T06:37:16;15.07;;;8.07;;
50717;SDS011;60557;51.350;12.410;2023-04-08T06:39:42;14.25;;;7.93;;
50717;SDS011;60557;51.350;12.410;2023-04-08T06:42:08;19.48;;;7.57;;
50717;SDS011;60557;51.350;12.410;2023-04-08T06:44:35;14.98;;;7.80;;
50717;SDS011;60557;51.350;12.410;2023-04-08T06:47:01;17.10;;;8.23;;
50717;SDS011;60557;51.350;12.410;2023-04-08T06:49:27;13.15;;;7.88;;
50717;SDS011;60557;51.350;12.410;2023-04-08T06:51:54;20.42;;;9.15;;
50717;SDS011;60557;51.350;12.410;2023-04-08T06:54:22;29.27;;;9.65;;
50717;SDS011;60557;51.350;12.410;2023-04-08T06:56:48;22.05;;;10.02;;
50717;SDS011;60557;51.350;12.410;2023-04-08T06:59:14;18.77;;;9.88;;
50717;SDS011;60557;51.350;12.410;2023-04-08T07:01:40;21.42;;;10.45;;
50717;SDS011;60557;51.350;12.410;2023-04-08T07:04:06;21.33;;;11.23;;
50717;SDS011;60557;51.350;12.410;2023-04-08T07:06:35;21.35;;;10.85;;
50717;SDS011;60557;51.350;12.410;2023-04-08T07:09:01;30.40;;;11.57;;
50717;SDS011;60557;51.350;12.410;2023-04-08T07:11:29;38.63;;;12.75;;
50717;SDS011;60557;51.350;12.410;2023-04-08T07:13:57;26.77;;;11.02;;
50717;SDS011;60557;51.350;12.410;2023-04-08T07:16:23;24.08;;;11.15;;
50717;SDS011;60557;51.350;12.410;2023-04-08T07:18:50;23.13;;;11.10;;
50717;SDS011;60557;51.350;12.410;2023-04-08T07:21:16;29.40;;;12.30;;
50717;SDS011;60557;51.350;12.410;2023-04-08T07:23:42;22.85;;;11.70;;
50717;SDS011;60557;51.350;12.410;2023-04-08T07:26:11;21.42;;;12.15;;
50717;SDS011;60557;51.350;12.410;2023-04-08T07:28:39;21.70;;;12.00;;
50717;SDS011;60557;51.350;12.410;2023-04-08T07:31:09;24.90;;;13.57;;
50717;SDS011;60557;51.350;12.410;2023-04-08T07:33:35;18.10;;;9.20;;
50717;SDS011;60557;51.350;12.410;2023-04-08T07:36:01;23.90;;;13.25;;
50717;SDS011;60557;51.350;12.410;2023-04-08T07:38:27;22.80;;;12.63;;
50717;SDS011;60557;51.350;12.410;2023-04-08T07:41:01;22.85;;;13.55;;
50717;SDS011;60557;51.350;12.410;2023-04-08T07:43:30;23.23;;;13.02;;
50717;SDS011;60557;51.350;12.410;2023-04-08T07:46:03;24.35;;;14.00;;
50717;SDS011;60557;51.350;12.410;2023-04-08T07:48:29;21.30;;;12.95;;
50717;SDS011;60557;51.350;12.410;2023-04-08T07:50:56;23.48;;;14.20;;
50717;SDS011;60557;51.350;12.410;2023-04-08T07:53:22;18.42;;;13.43;;
50717;SDS011;60557;51.350;12.410;2023-04-08T07:55:51;22.83;;;12.95;;
50717;SDS011;60557;51.350;12.410;2023-04-08T07:58:17;20.23;;;13.55;;
50717;SDS011;60557;51.350;12.410;2023-04-08T08:00:43;20.92;;;12.68;;
50717;SDS011;60557;51.350;12.410;2023-04-08T08:03:10;19.63;;;13.20;;
50717;SDS011;60557;51.350;12.410;2023-04-08T08:05:36;21.50;;;13.60;;
50717;SDS011;60557;51.350;12.410;2023-04-08T08:08:02;23.92;;;14.98;;
50717;SDS011;60557;51.350;12.410;2023-04-08T08:10:28;20.05;;;14.52;;
50717;SDS011;60557;51.350;12.410;2023-04-08T08:12:54;23.73;;;15.60;;
50717;SDS011;60557;51.350;12.410;2023-04-08T08:15:20;24.48;;;15.15;;
50717;SDS011;60557;51.350;12.410;2023-04-08T08:17:49;21.95;;;15.57;;
50717;SDS011;60557;51.350;12.410;2023-04-08T08:20:15;25.83;;;16.30;;
50717;SDS011;60557;51.350;12.410;2023-04-08T08:22:43;22.80;;;15.00;;
50717;SDS011;60557;51.350;12.410;2023-04-08T08:25:09;21.73;;;15.13;;
50717;SDS011;60557;51.350;12.410;2023-04-08T08:27:36;23.90;;;15.38;;
50717;SDS011;60557;51.350;12.410;2023-04-08T08:30:04;22.70;;;15.00;;
50717;SDS011;60557;51.350;12.410;2023-04-08T08:32:33;23.40;;;15.07;;
50717;SDS011;60557;51.350;12.410;2023-04-08T08:35:00;24.70;;;15.98;;
50717;SDS011;60557;51.350;12.410;2023-04-08T08:37:26;23.65;;;15.25;;
50717;SDS011;60557;51.350;12.410;2023-04-08T08:39:54;22.55;;;15.10;;
50717;SDS011;60557;51.350;12.410;2023-04-08T08:42:21;25.30;;;16.35;;
50717;SDS011;60557;51.350;12.410;2023-04-08T08:44:47;23.08;;;15.65;;
50717;SDS011;60557;51.350;12.410;2023-04-08T08:47:14;23.42;;;15.48;;
50717;SDS011;60557;51.350;12.410;2023-04-08T08:49:40;24.30;;;16.67;;
50717;SDS011;60557;51.350;12.410;2023-04-08T08:52:06;23.20;;;15.15;;
50717;SDS011;60557;51.350;12.410;2023-04-08T08:54:32;24.33;;;16.80;;
50717;SDS011;60557;51.350;12.410;2023-04-08T08:56:58;23.92;;;16.33;;
50717;SDS011;60557;51.350;12.410;2023-04-08T08:59:25;27.10;;;17.58;;
50717;SDS011;60557;51.350;12.410;2023-04-08T09:01:51;25.42;;;16.70;;
50717;SDS011;60557;51.350;12.410;2023-04-08T09:04:18;25.90;;;17.08;;
50717;SDS011;60557;51.350;12.410;2023-04-08T09:06:45;24.20;;;15.60;;
50717;SDS011;60557;51.350;12.410;2023-04-08T09:09:11;24.95;;;17.42;;
50717;SDS011;60557;51.350;12.410;2023-04-08T09:11:45;27.42;;;15.68;;
50717;SDS011;60557;51.350;12.410;2023-04-08T09:14:23;25.20;;;16.98;;
50717;SDS011;60557;51.350;12.410;2023-04-08T09:16:50;23.95;;;16.85;;
50717;SDS011;60557;51.350;12.410;2023-04-08T09:19:16;23.30;;;16.75;;
50717;SDS011;60557;51.350;12.410;2023-04-08T09:21:42;22.83;;;16.48;;
50717;SDS011;60557;51.350;12.410;2023-04-08T09:24:25;29.48;;;17.58;;
50717;SDS011;60557;51.350;12.410;2023-04-08T09:26:52;21.75;;;15.77;;
50717;SDS011;60557;51.350;12.410;2023-04-08T09:29:21;24.77;;;16.23;;
50717;SDS011;60557;51.350;12.410;2023-04-08T09:31:48;23.75;;;16.77;;
50717;SDS011;60557;51.350;12.410;2023-04-08T09:34:18;26.80;;;17.33;;
50717;SDS011;60557;51.350;12.410;2023-04-08T09:36:45;24.77;;;17.50;;
50717;SDS011;60557;51.350;12.410;2023-04-08T09:39:13;23.02;;;16.23;;
50717;SDS011;60557;51.350;12.410;2023-04-08T09:41:42;24.10;;;16.65;;
50717;SDS011;60557;51.350;12.410;2023-04-08T09:44:11;26.60;;;17.95;;
50717;SDS011;60557;51.350;12.410;2023-04-08T09:46:46;24.65;;;16.80;;
50717;SDS011;60557;51.350;12.410;2023-04-08T09:54:57;24.63;;;17.40;;
50717;SDS011;60557;51.350;12.410;2023-04-08T09:57:36;24.88;;;17.05;;
50717;SDS011;60557;51.350;12.410;2023-04-08T10:00:12;28.20;;;18.08;;
50717;SDS011;60557;51.350;12.410;2023-04-08T10:05:14;23.77;;;16.15;;
50717;SDS011;60557;51.350;12.410;2023-04-08T10:07:42;25.67;;;17.75;;
50717;SDS011;60557;51.350;12.410;2023-04-08T10:10:08;36.78;;;22.08;;
50717;SDS011;60557;51.350;12.410;2023-04-08T10:12:35;25.98;;;18.75;;
50717;SDS011;60557;51.350;12.410;2023-04-08T10:15:20;25.67;;;17.52;;
50717;SDS011;60557;51.350;12.410;2023-04-08T10:17:48;28.98;;;17.65;;
50717;SDS011;60557;51.350;12.410;2023-04-08T10:22:59;24.17;;;17.02;;
50717;SDS011;60557;51.350;12.410;2023-04-08T10:25:34;26.27;;;18.45;;
50717;SDS011;60557;51.350;12.410;2023-04-08T10:28:22;27.08;;;19.88;;
50717;SDS011;60557;51.350;12.410;2023-04-08T10:30:48;28.52;;;19.38;;
50717;SDS011;60557;51.350;12.410;2023-04-08T10:35:43;24.15;;;17.77;;
50717;SDS011;60557;51.350;12.410;2023-04-08T10:38:12;23.55;;;17.23;;
50717;SDS011;60557;51.350;12.410;2023-04-08T10:40:39;26.08;;;18.70;;
50717;SDS011;60557;51.350;12.410;2023-04-08T10:43:11;28.77;;;17.67;;
50717;SDS011;60557;51.350;12.410;2023-04-08T10:45:38;28.02;;;19.33;;
50717;SDS011;60557;51.350;12.410;2023-04-08T10:48:37;23.45;;;17.50;;
50717;SDS011;60557;51.350;12.410;2023-04-08T10:50:58;23.73;;;15.98;;
50717;SDS011;60557;51.350;12.410;2023-04-08T10:53:25;20.98;;;15.98;;
50717;SDS011;60557;51.350;12.410;2023-04-08T10:55:52;23.33;;;16.98;;
50717;SDS011;60557;51.350;12.410;2023-04-08T10:58:18;26.20;;;17.33;;
50717;SDS011;60557;51.350;12.410;2023-04-08T11:00:46;24.65;;;17.65;;
50717;SDS011;60557;51.350;12.410;2023-04-08T11:03:12;26.10;;;17.75;;
50717;SDS011;60557;51.350;12.410;2023-04-08T11:05:38;25.20;;;17.83;;
50717;SDS011;60557;51.350;12.410;2023-04-08T11:08:05;24.45;;;17.50;;
50717;SDS011;60557;51.350;12.410;2023-04-08T11:10:35;26.48;;;18.10;;
50717;SDS011;60557;51.350;12.410;2023-04-08T11:13:07;24.10;;;17.20;;
50717;SDS011;60557;51.350;12.410;2023-04-08T11:15:34;24.93;;;17.73;;
50717;SDS011;60557;51.350;12.410;2023-04-08T11:18:01;25.83;;;16.38;;
50717;SDS011;60557;51.350;12.410;2023-04-08T11:20:27;24.38;;;16.95;;
50717;SDS011;60557;51.350;12.410;2023-04-08T11:22:53;24.85;;;17.05;;
50717;SDS011;60557;51.350;12.410;2023-04-08T11:25:20;23.40;;;16.63;;
50717;SDS011;60557;51.350;12.410;2023-04-08T11:27:46;21.48;;;16.40;;
50717;SDS011;60557;51.350;12.410;2023-04-08T11:30:14;20.75;;;15.85;;
50717;SDS011;60557;51.350;12.410;2023-04-08T11:32:40;20.27;;;15.10;;
50717;SDS011;60557;51.350;12.410;2023-04-08T11:35:07;22.00;;;16.85;;
50717;SDS011;60557;51.350;12.410;2023-04-08T11:37:39;22.80;;;15.35;;
50717;SDS011;60557;51.350;12.410;2023-04-08T11:40:09;17.60;;;14.10;;
50717;SDS011;60557;51.350;12.410;2023-04-08T11:42:35;16.25;;;12.48;;
50717;SDS011;60557;51.350;12.410;2023-04-08T11:45:08;18.00;;;13.68;;
50717;SDS011;60557;51.350;12.410;2023-04-08T11:47:34;19.98;;;13.13;;
50717;SDS011;60557;51.350;12.410;2023-04-08T11:50:06;18.13;;;14.45;;
50717;SDS011;60557;51.350;12.410;2023-04-08T11:52:42;20.00;;;13.82;;
50717;SDS011;60557;51.350;12.410;2023-04-08T11:55:09;20.67;;;14.07;;
50717;SDS011;60557;51.350;12.410;2023-04-08T11:57:36;16.83;;;13.43;;
50717;SDS011;60557;51.350;12.410;2023-04-08T12:00:05;18.20;;;13.48;;
50717;SDS011;60557;51.350;12.410;2023-04-08T12:02:31;15.63;;;12.65;;
50717;SDS011;60557;51.350;12.410;2023-04-08T12:04:57;18.75;;;13.27;;
50717;SDS011;60557;51.350;12.410;2023-04-08T12:07:23;16.95;;;12.68;;
50717;SDS011;60557;51.350;12.410;2023-04-08T12:09:49;16.20;;;12.65;;
50717;SDS011;60557;51.350;12.410;2023-04-08T12:12:16;16.55;;;13.20;;
50717;SDS011;60557;51.350;12.410;2023-04-08T12:14:42;18.17;;;13.52;;
50717;SDS011;60557;51.350;12.410;2023-04-08T12:17:08;18.08;;;12.70;;
50717;SDS011;60557;51.350;12.410;2023-04-08T12:19:34;17.00;;;13.23;;
50717;SDS011;60557;51.350;12.410;2023-04-08T12:22:00;16.25;;;12.30;;
50717;SDS011;60557;51.350;12.410;2023-04-08T12:24:27;14.77;;;11.93;;
50717;SDS011;60557;51.350;12.410;2023-04-08T12:26:53;16.48;;;11.07;;
50717;SDS011;60557;51.350;12.410;2023-04-08T12:29:20;15.82;;;12.35;;
50717;SDS011;60557;51.350;12.410;2023-04-08T12:31:46;15.45;;;12.48;;
50717;SDS011;60557;51.350;12.410;2023-04-08T12:34:12;15.80;;;11.75;;
50717;SDS011;60557;51.350;12.410;2023-04-08T12:36:41;17.15;;;11.20;;
50717;SDS011;60557;51.350;12.410;2023-04-08T12:39:08;14.70;;;10.90;;
50717;SDS011;60557;51.350;12.410;2023-04-08T12:41:37;14.15;;;11.18;;
50717;SDS011;60557;51.350;12.410;2023-04-08T12:44:06;17.48;;;10.93;;
50717;SDS011;60557;51.350;12.410;2023-04-08T12:46:32;15.05;;;11.65;;
50717;SDS011;60557;51.350;12.410;2023-04-08T12:49:00;13.85;;;10.40;;
50717;SDS011;60557;51.350;12.410;2023-04-08T12:51:29;12.45;;;9.73;;
50717;SDS011;60557;51.350;12.410;2023-04-08T12:53:58;15.10;;;11.48;;
50717;SDS011;60557;51.350;12.410;2023-04-08T12:56:25;11.25;;;9.68;;
50717;SDS011;60557;51.350;12.410;2023-04-08T12:58:51;13.30;;;11.20;;
50717;SDS011;60557;51.350;12.410;2023-04-08T13:01:20;16.02;;;11.35;;
50717;SDS011;60557;51.350;12.410;2023-04-08T13:03:46;13.68;;;10.25;;
50717;SDS011;60557;51.350;12.410;2023-04-08T13:06:12;14.20;;;10.88;;
50717;SDS011;60557;51.350;12.410;2023-04-08T13:08:39;18.50;;;11.15;;
50717;SDS011;60557;51.350;12.410;2023-04-08T13:11:06;13.30;;;11.05;;
50717;SDS011;60557;51.350;12.410;2023-04-08T13:13:33;13.70;;;11.27;;
50717;SDS011;60557;51.350;12.410;2023-04-08T13:16:00;12.90;;;10.80;;
50717;SDS011;60557;51.350;12.410;2023-04-08T13:18:27;14.15;;;11.13;;
50717;SDS011;60557;51.350;12.410;2023-04-08T13:20:53;13.65;;;11.38;;
50717;SDS011;60557;51.350;12.410;2023-04-08T13:23:19;16.00;;;11.63;;
50717;SDS011;60557;51.350;12.410;2023-04-08T13:25:46;15.48;;;11.93;;
50717;SDS011;60557;51.350;12.410;2023-04-08T13:28:12;13.00;;;11.32;;
50717;SDS011;60557;51.350;12.410;2023-04-08T13:30:38;14.18;;;10.32;;
50717;SDS011;60557;51.350;12.410;2023-04-08T13:33:06;12.55;;;10.48;;
50717;SDS011;60557;51.350;12.410;2023-04-08T13:35:32;10.38;;;8.90;;
50717;SDS011;60557;51.350;12.410;2023-04-08T13:37:58;11.07;;;9.68;;
50717;SDS011;60557;51.350;12.410;2023-04-08T13:40:25;12.43;;;9.32;;
50717;SDS011;60557;51.350;12.410;2023-04-08T13:42:51;11.35;;;9.35;;
50717;SDS011;60557;51.350;12.410;2023-04-08T13:45:18;12.80;;;9.73;;
50717;SDS011;60557;51.350;12.410;2023-04-08T13:47:46;13.10;;;11.15;;
50717;SDS011;60557;51.350;12.410;2023-04-08T13:50:12;17.08;;;11.57;;
50717;SDS011;60557;51.350;12.410;2023-04-08T13:52:39;15.75;;;11.07;;
50717;SDS011;60557;51.350;12.410;2023-04-08T13:55:05;15.25;;;11.85;;
50717;SDS011;60557;51.350;12.410;2023-04-08T13:57:31;16.48;;;11.73;;
50717;SDS011;60557;51.350;12.410;2023-04-08T13:59:57;13.10;;;11.25;;
50717;SDS011;60557;51.350;12.410;2023-04-08T14:02:23;14.18;;;10.15;;
50717;SDS011;60557;51.350;12.410;2023-04-08T14:04:49;13.93;;;10.00;;
50717;SDS011;60557;51.350;12.410;2023-04-08T14:07:18;12.07;;;8.25;;
50717;SDS011;60557;51.350;12.410;2023-04-08T14:09:44;13.02;;;8.57;;
50717;SDS011;60557;51.350;12.410;2023-04-08T14:12:10;13.45;;;9.55;;
50717;SDS011;60557;51.350;12.410;2023-04-08T14:14:36;11.55;;;9.07;;
50717;SDS011;60557;51.350;12.410;2023-04-08T14:17:05;14.05;;;10.52;;
50717;SDS011;60557;51.350;12.410;2023-04-08T14:19:31;14.18;;;10.52;;
50717;SDS011;60557;51.350;12.410;2023-04-08T14:21:57;13.32;;;10.02;;
50717;SDS011;60557;51.350;12.410;2023-04-08T14:24:25;13.43;;;10.73;;
50717;SDS011;60557;51.350;12.410;2023-04-08T14:26:51;17.70;;;12.32;;
50717;SDS011;60557;51.350;12.410;2023-04-08T14:29:17;13.88;;;10.63;;
50717;SDS011;60557;51.350;12.410;2023-04-08T14:31:44;13.23;;;10.25;;
50717;SDS011;60557;51.350;12.410;2023-04-08T14:34:10;12.18;;;9.65;;
50717;SDS011;60557;51.350;12.410;2023-04-08T14:36:36;13.27;;;9.43;;
50717;SDS011;60557;51.350;12.410;2023-04-08T14:39:04;13.77;;;9.43;;